sensor_id;sensor_type;location;lat;lon;timestamp;pressure;altitude;pressure_sealevel;temperature;humidity
17254;BME280;32542;52.832;13.816;2023-07-13T00:02:25;101194.47;;;24.88;45.17
17254;BME280;32542;52.832;13.816;2023-07-13T00:05:30;101199.81;;;24.88;45.21
17254;BME280;32542;52.832;13.816;2023-07-13T00:08:34;101192.72;;;24.87;45.20
17254;BME280;32542;52.832;13.816;2023-07-13T00:11:37;101193.59;;;24.87;45.24
17254;BME280;32542;52.832;13.816;2023-07-13T00:14:40;101185.56;;;24.87;45.39
17254;BME280;32542;52.832;13.816;2023-07-13T00:17:43;101187.38;;;24.87;45.30
17254;BME280;32542;52.832;13.816;2023-07-13T00:20:48;101191.84;;;24.86;45.36
17254;BME280;32542;52.832;13.816;2023-07-13T00:23:51;101198.09;;;24.87;45.36
17254;BME280;32542;52.832;13.816;2023-07-13T00:26:54;101201.69;;;24.86;45.27
17254;BME280;32542;52.832;13.816;2023-07-13T00:29:58;101195.50;;;24.85;45.39
17254;BME280;32542;52.832;13.816;2023-07-13T00:33:01;101198.19;;;24.85;45.23
17254;BME280;32542;52.832;13.816;2023-07-13T00:36:20;101192.88;;;24.84;45.33
17254;BME280;32542;52.832;13.816;2023-07-13T00:39:23;101193.75;;;24.84;45.33
17254;BME280;32542;52.832;13.816;2023-07-13T00:42:26;101193.75;;;24.84;45.33
17254;BME280;32542;52.832;13.816;2023-07-13T00:49:22;101188.41;;;24.84;45.22
17254;BME280;32542;52.832;13.816;2023-07-13T00:52:27;101183.03;;;24.84;45.36
17254;BME280;32542;52.832;13.816;2023-07-13T00:55:30;101184.84;;;24.84;45.30
17254;BME280;32542;52.832;13.816;2023-07-13T00:58:34;101178.66;;;24.83;45.43
17254;BME280;32542;52.832;13.816;2023-07-13T01:01:38;101185.81;;;24.83;45.23
17254;BME280;32542;52.832;13.816;2023-07-13T01:04:41;101184.94;;;24.82;45.46
17254;BME280;32542;52.832;13.816;2023-07-13T01:07:48;101185.81;;;24.83;45.35
17254;BME280;32542;52.832;13.816;2023-07-13T01:10:54;101178.72;;;24.82;45.40
17254;BME280;32542;52.832;13.816;2023-07-13T01:13:57;101175.19;;;24.81;45.50
17254;BME280;32542;52.832;13.816;2023-07-13T01:17:00;101178.72;;;24.82;45.57
17254;BME280;32542;52.832;13.816;2023-07-13T01:20:07;101177.88;;;24.81;45.24
17254;BME280;32542;52.832;13.816;2023-07-13T01:23:12;101177.88;;;24.81;45.43
17254;BME280;32542;52.832;13.816;2023-07-13T01:26:15;101179.59;;;24.82;45.34
17254;BME280;32542;52.832;13.816;2023-07-13T01:29:18;101190.41;;;24.81;45.59
17254;BME280;32542;52.832;13.816;2023-07-13T01:32:24;101185.91;;;24.81;45.29
17254;BME280;32542;52.832;13.816;2023-07-13T01:35:29;101174.44;;;24.79;45.58
17254;BME280;32542;52.832;13.816;2023-07-13T01:38:35;101175.28;;;24.79;45.51
17254;BME280;32542;52.832;13.816;2023-07-13T01:41:38;101180.72;;;24.78;45.42
17254;BME280;32542;52.832;13.816;2023-07-13T01:44:41;101195.00;;;24.78;45.67
17254;BME280;32542;52.832;13.816;2023-07-13T01:47:44;101201.22;;;24.79;45.62
17254;BME280;32542;52.832;13.816;2023-07-13T01:50:48;101195.88;;;24.79;45.72
17254;BME280;32542;52.832;13.816;2023-07-13T01:53:53;101188.75;;;24.78;45.44
17254;BME280;32542;52.832;13.816;2023-07-13T01:56:57;101194.13;;;24.78;45.57
17254;BME280;32542;52.832;13.816;2023-07-13T02:00:03;101181.66;;;24.77;45.40
17254;BME280;32542;52.832;13.816;2023-07-13T02:03:16;101180.72;;;24.78;45.46
17254;BME280;32542;52.832;13.816;2023-07-13T02:06:20;101187.03;;;24.77;45.34
17254;BME280;32542;52.832;13.816;2023-07-13T02:09:24;101187.03;;;24.77;45.62
17254;BME280;32542;52.832;13.816;2023-07-13T02:12:27;101196.91;;;24.76;45.37
17254;BME280;32542;52.832;13.816;2023-07-13T02:15:30;101208.44;;;24.77;45.49
17254;BME280;32542;52.832;13.816;2023-07-13T02:18:32;101206.75;;;24.76;45.65
17254;BME280;32542;52.832;13.816;2023-07-13T02:21:35;101216.59;;;24.75;45.57
17254;BME280;32542;52.832;13.816;2023-07-13T02:24:40;101217.47;;;24.76;45.46
17254;BME280;32542;52.832;13.816;2023-07-13T02:27:42;101216.59;;;24.75;45.57
17254;BME280;32542;52.832;13.816;2023-07-13T02:30:45;101215.72;;;24.75;45.59
17254;BME280;32542;52.832;13.816;2023-07-13T02:33:48;101218.38;;;24.75;45.47
17254;BME280;32542;52.832;13.816;2023-07-13T02:36:51;101231.78;;;24.75;45.43
17254;BME280;32542;52.832;13.816;2023-07-13T02:39:56;101225.59;;;24.74;45.65
17254;BME280;32542;52.832;13.816;2023-07-13T02:42:59;101218.47;;;24.73;45.49
17254;BME280;32542;52.832;13.816;2023-07-13T02:46:02;101222.94;;;24.73;45.19
17254;BME280;32542;52.832;13.816;2023-07-13T02:49:10;101226.50;;;24.73;45.40
17254;BME280;32542;52.832;13.816;2023-07-13T02:52:13;101221.13;;;24.73;45.49
17254;BME280;32542;52.832;13.816;2023-07-13T02:55:17;101218.56;;;24.72;45.38
17254;BME280;32542;52.832;13.816;2023-07-13T02:58:20;101225.72;;;24.71;45.46
17254;BME280;32542;52.832;13.816;2023-07-13T03:01:24;101226.59;;;24.72;45.31
17254;BME280;32542;52.832;13.816;2023-07-13T03:04:27;101234.63;;;24.72;45.39
17254;BME280;32542;52.832;13.816;2023-07-13T03:07:30;101222.09;;;24.72;45.48
17254;BME280;32542;52.832;13.816;2023-07-13T03:10:36;101227.47;;;24.72;45.46
17254;BME280;32542;52.832;13.816;2023-07-13T03:13:40;101233.75;;;24.71;45.53
17254;BME280;32542;52.832;13.816;2023-07-13T03:16:45;101239.97;;;24.72;45.50
17254;BME280;32542;52.832;13.816;2023-07-13T03:19:49;101240.91;;;24.71;45.60
17254;BME280;32542;52.832;13.816;2023-07-13T03:22:53;101258.72;;;24.72;45.36
17254;BME280;32542;52.832;13.816;2023-07-13T03:26:05;101254.31;;;24.71;45.50
17254;BME280;32542;52.832;13.816;2023-07-13T03:29:09;101245.44;;;24.70;45.63
17254;BME280;32542;52.832;13.816;2023-07-13T03:32:12;101241.88;;;24.70;45.30
17254;BME280;32542;52.832;13.816;2023-07-13T03:35:15;101241.88;;;24.70;45.40
17254;BME280;32542;52.832;13.816;2023-07-13T03:38:19;101240.13;;;24.69;45.49
17254;BME280;32542;52.832;13.816;2023-07-13T03:41:24;101253.47;;;24.70;45.30
17254;BME280;32542;52.832;13.816;2023-07-13T03:44:28;101232.97;;;24.69;45.46
17254;BME280;32542;52.832;13.816;2023-07-13T03:47:31;101241.97;;;24.68;45.40
17254;BME280;32542;52.832;13.816;2023-07-13T03:50:38;101241.09;;;24.68;45.23
17254;BME280;32542;52.832;13.816;2023-07-13T03:53:42;101239.31;;;24.68;45.39
17254;BME280;32542;52.832;13.816;2023-07-13T03:56:48;101251.81;;;24.68;45.38
17254;BME280;32542;52.832;13.816;2023-07-13T03:59:53;101249.16;;;24.68;45.37
17254;BME280;32542;52.832;13.816;2023-07-13T04:02:56;101244.72;;;24.67;45.38
17254;BME280;32542;52.832;13.816;2023-07-13T04:05:59;101259.09;;;24.66;45.64
17254;BME280;32542;52.832;13.816;2023-07-13T04:09:03;101264.44;;;24.66;45.39
17254;BME280;32542;52.832;13.816;2023-07-13T04:12:09;101263.56;;;24.65;45.43
17254;BME280;32542;52.832;13.816;2023-07-13T04:15:12;101269.78;;;24.66;45.59
17254;BME280;32542;52.832;13.816;2023-07-13T04:18:15;101264.44;;;24.66;45.49
17254;BME280;32542;52.832;13.816;2023-07-13T04:21:18;101263.56;;;24.65;45.37
17254;BME280;32542;52.832;13.816;2023-07-13T04:24:21;101260.00;;;24.65;45.60
17254;BME280;32542;52.832;13.816;2023-07-13T04:27:25;101268.91;;;24.65;45.58
17254;BME280;32542;52.832;13.816;2023-07-13T04:30:30;101272.53;;;24.64;45.51
17254;BME280;32542;52.832;13.816;2023-07-13T04:33:33;101272.53;;;24.64;45.30
17254;BME280;32542;52.832;13.816;2023-07-13T04:36:36;101279.72;;;24.64;45.47
17254;BME280;32542;52.832;13.816;2023-07-13T04:39:39;101275.31;;;24.63;45.69
17254;BME280;32542;52.832;13.816;2023-07-13T04:42:44;101282.41;;;24.64;45.54
17254;BME280;32542;52.832;13.816;2023-07-13T04:45:47;101294.94;;;24.63;45.52
17254;BME280;32542;52.832;13.816;2023-07-13T04:48:50;101296.72;;;24.63;45.50
17254;BME280;32542;52.832;13.816;2023-07-13T04:51:55;101296.72;;;24.63;45.63
17254;BME280;32542;52.832;13.816;2023-07-13T04:54:58;101302.97;;;24.63;45.69
17254;BME280;32542;52.832;13.816;2023-07-13T04:58:02;101302.97;;;24.63;45.39
17254;BME280;32542;52.832;13.816;2023-07-13T05:01:06;101295.88;;;24.62;45.41
17254;BME280;32542;52.832;13.816;2023-07-13T05:04:10;101301.22;;;24.62;45.55
17254;BME280;32542;52.832;13.816;2023-07-13T05:07:14;101301.22;;;24.62;45.69
17254;BME280;32542;52.832;13.816;2023-07-13T05:10:17;101303.06;;;24.62;45.49
17254;BME280;32542;52.832;13.816;2023-07-13T05:13:22;101301.31;;;24.61;45.58
17254;BME280;32542;52.832;13.816;2023-07-13T05:16:28;101304.00;;;24.61;45.59
17254;BME280;32542;52.832;13.816;2023-07-13T05:19:31;101300.38;;;24.62;45.38
17254;BME280;32542;52.832;13.816;2023-07-13T05:22:34;101301.31;;;24.61;45.70
17254;BME280;32542;52.832;13.816;2023-07-13T05:25:37;101300.38;;;24.62;45.75
17254;BME280;32542;52.832;13.816;2023-07-13T05:28:42;101303.06;;;24.62;45.62
17254;BME280;32542;52.832;13.816;2023-07-13T05:31:45;101310.22;;;24.61;45.67
17254;BME280;32542;52.832;13.816;2023-07-13T05:34:48;101306.66;;;24.61;45.40
17254;BME280;32542;52.832;13.816;2023-07-13T05:37:51;101310.22;;;24.61;45.66
17254;BME280;32542;52.832;13.816;2023-07-13T05:40:54;101319.13;;;24.62;45.41
17254;BME280;32542;52.832;13.816;2023-07-13T05:43:59;101326.28;;;24.61;45.43
17254;BME280;32542;52.832;13.816;2023-07-13T05:47:02;101314.72;;;24.61;45.59
17254;BME280;32542;52.832;13.816;2023-07-13T05:50:07;101321.81;;;24.62;45.62
17254;BME280;32542;52.832;13.816;2023-07-13T05:53:11;101316.44;;;24.62;45.67
17254;BME280;32542;52.832;13.816;2023-07-13T05:56:14;101313.00;;;24.60;45.90
17254;BME280;32542;52.832;13.816;2023-07-13T05:59:18;101320.06;;;24.61;45.81
17254;BME280;32542;52.832;13.816;2023-07-13T06:02:21;101320.06;;;24.61;45.71
17254;BME280;32542;52.832;13.816;2023-07-13T06:05:24;101329.84;;;24.62;45.66
17254;BME280;32542;52.832;13.816;2023-07-13T06:08:28;101329.84;;;24.62;45.87
17254;BME280;32542;52.832;13.816;2023-07-13T06:11:31;101320.06;;;24.61;45.58
17254;BME280;32542;52.832;13.816;2023-07-13T06:14:36;101319.19;;;24.60;45.86
17254;BME280;32542;52.832;13.816;2023-07-13T06:17:39;101328.09;;;24.61;45.60
17254;BME280;32542;52.832;13.816;2023-07-13T06:20:42;101325.41;;;24.61;45.78
17254;BME280;32542;52.832;13.816;2023-07-13T06:23:46;101325.41;;;24.61;45.82
17254;BME280;32542;52.832;13.816;2023-07-13T06:26:50;101329.06;;;24.60;45.84
17254;BME280;32542;52.832;13.816;2023-07-13T06:29:54;101325.41;;;24.61;45.85
17254;BME280;32542;52.832;13.816;2023-07-13T06:32:57;101320.94;;;24.61;45.83
17254;BME280;32542;52.832;13.816;2023-07-13T06:36:01;101323.63;;;24.61;45.60
17254;BME280;32542;52.832;13.816;2023-07-13T06:39:06;101322.75;;;24.61;45.95
17254;BME280;32542;52.832;13.816;2023-07-13T06:42:09;101314.72;;;24.61;45.75
17254;BME280;32542;52.832;13.816;2023-07-13T06:45:17;101309.34;;;24.61;45.72
17254;BME280;32542;52.832;13.816;2023-07-13T06:48:20;101309.34;;;24.61;45.84
17254;BME280;32542;52.832;13.816;2023-07-13T06:51:22;101305.78;;;24.60;45.74
17254;BME280;32542;52.832;13.816;2023-07-13T06:54:25;101309.34;;;24.61;46.09
17254;BME280;32542;52.832;13.816;2023-07-13T06:57:29;101319.19;;;24.60;45.86
17254;BME280;32542;52.832;13.816;2023-07-13T07:00:33;101310.22;;;24.61;45.96
17254;BME280;32542;52.832;13.816;2023-07-13T07:03:36;101307.63;;;24.60;45.93
17254;BME280;32542;52.832;13.816;2023-07-13T07:06:39;101304.88;;;24.61;45.82
17254;BME280;32542;52.832;13.816;2023-07-13T07:09:42;101304.00;;;24.61;45.89
17254;BME280;32542;52.832;13.816;2023-07-13T07:12:45;101300.38;;;24.62;46.09
17254;BME280;32542;52.832;13.816;2023-07-13T07:15:51;101299.50;;;24.61;45.95
17254;BME280;32542;52.832;13.816;2023-07-13T07:18:54;101295.88;;;24.62;45.88
17254;BME280;32542;52.832;13.816;2023-07-13T07:21:57;101287.91;;;24.61;45.97
17254;BME280;32542;52.832;13.816;2023-07-13T07:25:00;101287.00;;;24.62;45.85
17254;BME280;32542;52.832;13.816;2023-07-13T07:28:03;101289.66;;;24.62;45.76
17254;BME280;32542;52.832;13.816;2023-07-13T07:31:10;101290.50;;;24.62;46.15
17254;BME280;32542;52.832;13.816;2023-07-13T07:34:16;101300.38;;;24.62;45.91
17254;BME280;32542;52.832;13.816;2023-07-13T07:37:19;101287.00;;;24.62;45.82
17254;BME280;32542;52.832;13.816;2023-07-13T07:40:25;101287.81;;;24.62;46.06
17254;BME280;32542;52.832;13.816;2023-07-13T07:43:30;101291.38;;;24.63;45.87
17254;BME280;32542;52.832;13.816;2023-07-13T07:46:35;101302.09;;;24.63;45.87
17254;BME280;32542;52.832;13.816;2023-07-13T07:49:38;101296.72;;;24.63;46.00
17254;BME280;32542;52.832;13.816;2023-07-13T07:52:41;101294.06;;;24.63;45.98
17254;BME280;32542;52.832;13.816;2023-07-13T07:55:45;101298.53;;;24.62;46.18
17254;BME280;32542;52.832;13.816;2023-07-13T07:58:52;101306.56;;;24.62;46.18
17254;BME280;32542;52.832;13.816;2023-07-13T08:01:59;101305.75;;;24.62;46.08
17254;BME280;32542;52.832;13.816;2023-07-13T08:05:07;101308.41;;;24.62;46.03
17254;BME280;32542;52.832;13.816;2023-07-13T08:08:13;101300.38;;;24.62;46.05
17254;BME280;32542;52.832;13.816;2023-07-13T08:11:17;101308.41;;;24.62;45.96
17254;BME280;32542;52.832;13.816;2023-07-13T08:14:23;101307.44;;;24.63;45.93
17254;BME280;32542;52.832;13.816;2023-07-13T08:17:41;101308.31;;;24.63;46.11
17254;BME280;32542;52.832;13.816;2023-07-13T08:20:46;101305.75;;;24.62;46.00
17254;BME280;32542;52.832;13.816;2023-07-13T08:23:49;101306.50;;;24.64;46.02
17254;BME280;32542;52.832;13.816;2023-07-13T08:26:51;101308.31;;;24.63;45.73
17254;BME280;32542;52.832;13.816;2023-07-13T08:29:54;101307.44;;;24.63;45.94
17254;BME280;32542;52.832;13.816;2023-07-13T08:32:59;101311.00;;;24.63;45.97
17254;BME280;32542;52.832;13.816;2023-07-13T08:36:02;101310.13;;;24.63;45.80
17254;BME280;32542;52.832;13.816;2023-07-13T08:39:06;101306.56;;;24.62;45.72
17254;BME280;32542;52.832;13.816;2023-07-13T08:42:15;101311.94;;;24.62;45.90
17254;BME280;32542;52.832;13.816;2023-07-13T08:45:22;101309.19;;;24.64;45.57
17254;BME280;32542;52.832;13.816;2023-07-13T08:48:32;101316.34;;;24.63;45.80
17254;BME280;32542;52.832;13.816;2023-07-13T08:51:41;101310.13;;;24.63;45.64
17254;BME280;32542;52.832;13.816;2023-07-13T08:54:48;101318.16;;;24.63;45.60
17254;BME280;32542;52.832;13.816;2023-07-13T08:57:56;101313.69;;;24.63;45.56
17254;BME280;32542;52.832;13.816;2023-07-13T09:01:06;101318.16;;;24.63;45.58
17254;BME280;32542;52.832;13.816;2023-07-13T09:04:19;101312.81;;;24.63;45.51
17254;BME280;32542;52.832;13.816;2023-07-13T09:07:32;101311.88;;;24.64;45.48
17254;BME280;32542;52.832;13.816;2023-07-13T09:10:41;101325.31;;;24.62;45.48
17254;BME280;32542;52.832;13.816;2023-07-13T09:13:52;101311.94;;;24.62;45.22
17254;BME280;32542;52.832;13.816;2023-07-13T09:17:00;101318.25;;;24.61;45.40
17254;BME280;32542;52.832;13.816;2023-07-13T09:20:12;101321.81;;;24.62;45.29
17254;BME280;32542;52.832;13.816;2023-07-13T09:23:22;101318.16;;;24.63;45.27
17254;BME280;32542;52.832;13.816;2023-07-13T09:26:28;101307.44;;;24.63;45.30
17254;BME280;32542;52.832;13.816;2023-07-13T09:29:34;101318.16;;;24.63;45.45
17254;BME280;32542;52.832;13.816;2023-07-13T09:32:37;101317.28;;;24.62;45.27
17254;BME280;32542;52.832;13.816;2023-07-13T09:35:43;101323.53;;;24.63;45.16
17254;BME280;32542;52.832;13.816;2023-07-13T09:38:47;101318.16;;;24.63;45.25
17254;BME280;32542;52.832;13.816;2023-07-13T09:41:54;101321.81;;;24.62;45.12
17254;BME280;32542;52.832;13.816;2023-07-13T09:45:01;101314.59;;;24.62;45.10
17254;BME280;32542;52.832;13.816;2023-07-13T09:48:06;101311.09;;;24.62;44.98
17254;BME280;32542;52.832;13.816;2023-07-13T09:51:13;101309.25;;;24.62;45.12
17254;BME280;32542;52.832;13.816;2023-07-13T09:54:21;101317.28;;;24.62;44.93
17254;BME280;32542;52.832;13.816;2023-07-13T09:57:27;101312.81;;;24.63;45.12
17254;BME280;32542;52.832;13.816;2023-07-13T10:00:55;101310.13;;;24.63;45.05
17254;BME280;32542;52.832;13.816;2023-07-13T10:03:59;101308.31;;;24.63;44.97
17254;BME280;32542;52.832;13.816;2023-07-13T10:07:07;101312.81;;;24.63;45.15
17254;BME280;32542;52.832;13.816;2023-07-13T10:10:29;101315.47;;;24.63;44.89
17254;BME280;32542;52.832;13.816;2023-07-13T10:13:35;101310.13;;;24.63;44.84
17254;BME280;32542;52.832;13.816;2023-07-13T10:16:39;101312.81;;;24.63;44.85
17254;BME280;32542;52.832;13.816;2023-07-13T10:19:47;101316.44;;;24.62;44.82
17254;BME280;32542;52.832;13.816;2023-07-13T10:22:54;101306.56;;;24.62;45.09
17254;BME280;32542;52.832;13.816;2023-07-13T10:26:00;101314.59;;;24.62;44.74
17254;BME280;32542;52.832;13.816;2023-07-13T10:29:07;101320.84;;;24.63;44.73
17254;BME280;32542;52.832;13.816;2023-07-13T10:32:13;101328.88;;;24.63;44.65
17254;BME280;32542;52.832;13.816;2023-07-13T10:35:17;101319.03;;;24.63;44.70
17254;BME280;32542;52.832;13.816;2023-07-13T10:38:24;101330.63;;;24.64;44.56
17254;BME280;32542;52.832;13.816;2023-07-13T10:41:31;101335.09;;;24.63;44.44
17254;BME280;32542;52.832;13.816;2023-07-13T10:44:36;101340.47;;;24.63;44.61
17254;BME280;32542;52.832;13.816;2023-07-13T10:47:40;101338.66;;;24.64;44.49
17254;BME280;32542;52.832;13.816;2023-07-13T10:50:45;101332.44;;;24.63;44.63
17254;BME280;32542;52.832;13.816;2023-07-13T10:54:14;101341.34;;;24.64;44.29
17254;BME280;32542;52.832;13.816;2023-07-13T10:57:21;101329.75;;;24.63;44.32
17254;BME280;32542;52.832;13.816;2023-07-13T11:00:24;101321.81;;;24.62;44.24
17254;BME280;32542;52.832;13.816;2023-07-13T11:03:28;101325.25;;;24.64;44.33
17254;BME280;32542;52.832;13.816;2023-07-13T11:06:37;101322.59;;;24.64;44.28
17254;BME280;32542;52.832;13.816;2023-07-13T11:09:42;101319.91;;;24.64;44.45
17254;BME280;32542;52.832;13.816;2023-07-13T11:12:51;101314.56;;;24.64;44.29
17254;BME280;32542;52.832;13.816;2023-07-13T11:15:54;101305.53;;;24.65;44.04
17254;BME280;32542;52.832;13.816;2023-07-13T11:19:24;101314.56;;;24.64;44.30
17254;BME280;32542;52.832;13.816;2023-07-13T11:22:42;101314.56;;;24.64;44.03
17254;BME280;32542;52.832;13.816;2023-07-13T11:25:47;101319.81;;;24.65;44.06
17254;BME280;32542;52.832;13.816;2023-07-13T11:28:50;101311.88;;;24.64;44.05
17254;BME280;32542;52.832;13.816;2023-07-13T11:31:56;101306.50;;;24.64;43.84
17254;BME280;32542;52.832;13.816;2023-07-13T11:34:59;101315.38;;;24.64;43.88
17254;BME280;32542;52.832;13.816;2023-07-13T11:38:03;101311.78;;;24.65;43.85
17254;BME280;32542;52.832;13.816;2023-07-13T11:41:16;101307.28;;;24.66;44.02
17254;BME280;32542;52.832;13.816;2023-07-13T11:44:22;101302.78;;;24.66;43.86
17254;BME280;32542;52.832;13.816;2023-07-13T11:47:25;101311.69;;;24.67;43.90
17254;BME280;32542;52.832;13.816;2023-07-13T11:50:30;101295.63;;;24.67;43.97
17254;BME280;32542;52.832;13.816;2023-07-13T11:53:38;101291.13;;;24.67;43.73
17254;BME280;32542;52.832;13.816;2023-07-13T11:56:43;101299.16;;;24.67;43.68
17254;BME280;32542;52.832;13.816;2023-07-13T11:59:49;101291.13;;;24.67;43.82
17254;BME280;32542;52.832;13.816;2023-07-13T12:02:56;101290.25;;;24.67;43.61
17254;BME280;32542;52.832;13.816;2023-07-13T12:06:02;101294.69;;;24.68;43.73
17254;BME280;32542;52.832;13.816;2023-07-13T12:09:11;101287.56;;;24.67;43.76
17254;BME280;32542;52.832;13.816;2023-07-13T12:12:18;101292.00;;;24.68;43.59
17254;BME280;32542;52.832;13.816;2023-07-13T12:15:22;101285.69;;;24.69;43.96
17254;BME280;32542;52.832;13.816;2023-07-13T12:18:29;101290.09;;;24.70;43.50
17254;BME280;32542;52.832;13.816;2023-07-13T12:21:37;101294.50;;;24.71;43.71
17254;BME280;32542;52.832;13.816;2023-07-13T12:24:41;101284.75;;;24.70;43.75
17254;BME280;32542;52.832;13.816;2023-07-13T12:27:48;101283.78;;;24.71;43.49
17254;BME280;32542;52.832;13.816;2023-07-13T12:30:58;101282.94;;;24.70;43.64
17254;BME280;32542;52.832;13.816;2023-07-13T12:34:06;101284.75;;;24.70;43.60
17254;BME280;32542;52.832;13.816;2023-07-13T12:37:11;101290.97;;;24.70;43.38
17254;BME280;32542;52.832;13.816;2023-07-13T12:40:16;101277.56;;;24.70;43.52
17254;BME280;32542;52.832;13.816;2023-07-13T12:43:22;101283.78;;;24.71;43.41
17254;BME280;32542;52.832;13.816;2023-07-13T12:46:26;101287.41;;;24.70;43.55
17254;BME280;32542;52.832;13.816;2023-07-13T12:49:32;101301.69;;;24.70;43.42
17254;BME280;32542;52.832;13.816;2023-07-13T12:52:37;101294.50;;;24.71;43.28
17254;BME280;32542;52.832;13.816;2023-07-13T12:55:41;101288.19;;;24.72;43.32
17254;BME280;32542;52.832;13.816;2023-07-13T12:58:47;101278.41;;;24.71;43.34
17254;BME280;32542;52.832;13.816;2023-07-13T13:01:56;101289.13;;;24.71;43.56
17254;BME280;32542;52.832;13.816;2023-07-13T13:04:59;101290.88;;;24.72;43.13
17254;BME280;32542;52.832;13.816;2023-07-13T13:08:03;101283.78;;;24.71;43.20
17254;BME280;32542;52.832;13.816;2023-07-13T13:11:06;101296.22;;;24.72;43.25
17254;BME280;32542;52.832;13.816;2023-07-13T13:14:10;101288.19;;;24.72;43.25
17254;BME280;32542;52.832;13.816;2023-07-13T13:17:18;101286.38;;;24.72;43.23
17254;BME280;32542;52.832;13.816;2023-07-13T13:20:22;101285.53;;;24.72;42.96
17254;BME280;32542;52.832;13.816;2023-07-13T13:23:27;101279.28;;;24.71;43.05
17254;BME280;32542;52.832;13.816;2023-07-13T13:26:30;101275.69;;;24.72;43.11
17254;BME280;32542;52.832;13.816;2023-07-13T13:29:38;101276.50;;;24.73;42.85
17254;BME280;32542;52.832;13.816;2023-07-13T13:32:44;101281.88;;;24.73;43.06
17254;BME280;32542;52.832;13.816;2023-07-13T13:35:48;101296.13;;;24.73;42.86
17254;BME280;32542;52.832;13.816;2023-07-13T13:38:51;101294.38;;;24.74;42.93
17254;BME280;32542;52.832;13.816;2023-07-13T13:41:54;101288.09;;;24.73;42.77
17254;BME280;32542;52.832;13.816;2023-07-13T13:44:58;101284.56;;;24.73;42.90
17254;BME280;32542;52.832;13.816;2023-07-13T13:48:01;101284.56;;;24.73;42.79
17254;BME280;32542;52.832;13.816;2023-07-13T13:51:14;101287.22;;;24.73;42.76
17254;BME280;32542;52.832;13.816;2023-07-13T13:54:19;101292.59;;;24.73;42.86
17254;BME280;32542;52.832;13.816;2023-07-13T13:57:23;101283.66;;;24.74;42.88
17254;BME280;32542;52.832;13.816;2023-07-13T14:00:29;101284.53;;;24.74;42.63
17254;BME280;32542;52.832;13.816;2023-07-13T14:03:32;101297.81;;;24.76;42.85
17254;BME280;32542;52.832;13.816;2023-07-13T14:06:35;101287.09;;;24.76;43.03
17254;BME280;32542;52.832;13.816;2023-07-13T14:09:39;101287.09;;;24.76;42.80
17254;BME280;32542;52.832;13.816;2023-07-13T14:12:43;101290.72;;;24.75;42.75
17254;BME280;32542;52.832;13.816;2023-07-13T14:15:48;101294.28;;;24.75;42.85
17254;BME280;32542;52.832;13.816;2023-07-13T14:18:52;101292.47;;;24.76;42.57
17254;BME280;32542;52.832;13.816;2023-07-13T14:21:55;101287.09;;;24.76;42.34
17254;BME280;32542;52.832;13.816;2023-07-13T14:24:58;101288.03;;;24.75;42.43
17254;BME280;32542;52.832;13.816;2023-07-13T14:28:14;101290.72;;;24.75;42.65
17254;BME280;32542;52.832;13.816;2023-07-13T14:31:23;101286.22;;;24.75;42.54
17254;BME280;32542;52.832;13.816;2023-07-13T14:34:31;101292.47;;;24.76;42.57
17254;BME280;32542;52.832;13.816;2023-07-13T14:37:35;101287.09;;;24.76;42.63
17254;BME280;32542;52.832;13.816;2023-07-13T14:40:39;101306.63;;;24.78;42.58
17254;BME280;32542;52.832;13.816;2023-07-13T14:43:43;101300.41;;;24.77;42.50
17254;BME280;32542;52.832;13.816;2023-07-13T14:46:48;101299.53;;;24.77;42.54
17254;BME280;32542;52.832;13.816;2023-07-13T14:49:52;101289.69;;;24.77;42.47
17254;BME280;32542;52.832;13.816;2023-07-13T14:52:55;101295.91;;;24.78;42.47
17254;BME280;32542;52.832;13.816;2023-07-13T14:55:58;101303.94;;;24.78;42.34
17254;BME280;32542;52.832;13.816;2023-07-13T14:59:01;101301.28;;;24.78;42.40
17254;BME280;32542;52.832;13.816;2023-07-13T15:02:14;101295.91;;;24.78;42.13
17254;BME280;32542;52.832;13.816;2023-07-13T15:05:20;101303.09;;;24.77;42.50
17254;BME280;32542;52.832;13.816;2023-07-13T15:08:24;101292.38;;;24.77;42.62
17254;BME280;32542;52.832;13.816;2023-07-13T15:11:27;101306.53;;;24.79;42.63
17254;BME280;32542;52.832;13.816;2023-07-13T15:14:30;101307.41;;;24.80;42.31
17254;BME280;32542;52.832;13.816;2023-07-13T15:17:37;101310.09;;;24.80;42.21
17254;BME280;32542;52.832;13.816;2023-07-13T15:20:40;101298.50;;;24.79;42.30
17254;BME280;32542;52.832;13.816;2023-07-13T15:23:43;101298.44;;;24.81;42.27
17254;BME280;32542;52.832;13.816;2023-07-13T15:26:46;101304.63;;;24.82;42.25
17254;BME280;32542;52.832;13.816;2023-07-13T15:29:50;101297.47;;;24.82;41.88
17254;BME280;32542;52.832;13.816;2023-07-13T15:32:56;101291.25;;;24.82;41.94
17254;BME280;32542;52.832;13.816;2023-07-13T15:35:59;101295.75;;;24.81;42.06
17254;BME280;32542;52.832;13.816;2023-07-13T15:39:03;101303.69;;;24.83;42.00
17254;BME280;32542;52.832;13.816;2023-07-13T15:42:09;101297.47;;;24.82;42.02
17254;BME280;32542;52.832;13.816;2023-07-13T15:45:17;101292.97;;;24.83;42.27
17254;BME280;32542;52.832;13.816;2023-07-13T15:48:24;101292.88;;;24.84;42.10
17254;BME280;32542;52.832;13.816;2023-07-13T15:51:30;101290.22;;;24.84;42.09
17254;BME280;32542;52.832;13.816;2023-07-13T15:54:38;101284.84;;;24.84;41.94
17254;BME280;32542;52.832;13.816;2023-07-13T15:57:43;101286.59;;;24.85;42.05
17254;BME280;32542;52.832;13.816;2023-07-13T16:00:47;101282.06;;;24.86;42.03